createdAt,value
2023-12-29T00:04:35.212Z,6.24
2023-12-29T00:09:42.621Z,6.25
2023-12-29T00:14:45.847Z,6.26
2023-12-29T00:19:48.692Z,6.28
2023-12-29T00:24:51.787Z,6.29
2023-12-29T00:29:54.491Z,6.31
2023-12-29T00:34:57.456Z,6.31
2023-12-29T00:40:00.491Z,6.32
2023-12-29T00:45:03.808Z,6.33
2023-12-29T00:50:07.081Z,6.33
2023-12-29T00:55:10.226Z,6.31
2023-12-29T01:00:14.342Z,6.27
2023-12-29T01:05:21.056Z,6.20
2023-12-29T01:10:24.243Z,6.16
2023-12-29T01:15:27.135Z,6.09
2023-12-29T01:20:29.986Z,6.03
2023-12-29T01:25:32.807Z,5.99
2023-12-29T01:30:35.642Z,5.91
2023-12-29T01:35:38.472Z,5.86
2023-12-29T01:40:47.905Z,5.82
2023-12-29T01:45:55.929Z,5.77
2023-12-29T01:51:01.186Z,5.73
2023-12-29T01:56:04.230Z,5.68
2023-12-29T02:01:08.734Z,5.65
2023-12-29T02:06:12.026Z,5.62
2023-12-29T02:11:15.128Z,5.57
2023-12-29T02:16:30.734Z,5.54
2023-12-29T02:21:33.454Z,5.50
2023-12-29T02:26:37.663Z,5.51
2023-12-29T02:31:45.689Z,5.52
2023-12-29T02:36:51.757Z,5.53
2023-12-29T02:41:54.728Z,5.54
2023-12-29T02:46:57.540Z,5.53
2023-12-29T02:52:00.291Z,5.55
2023-12-29T02:57:02.988Z,5.56
2023-12-29T03:02:05.772Z,5.58
2023-12-29T03:07:09.304Z,5.59
2023-12-29T03:12:12.174Z,5.61
2023-12-29T03:17:15.007Z,5.62
2023-12-29T03:22:17.757Z,5.60
2023-12-29T03:27:20.646Z,5.60
2023-12-29T03:32:23.445Z,5.58
2023-12-29T03:37:26.436Z,5.55
2023-12-29T03:42:29.166Z,5.53
2023-12-29T03:47:32.914Z,5.50
2023-12-29T03:52:35.748Z,5.50
2023-12-29T03:57:38.500Z,5.49
2023-12-29T04:02:42.068Z,5.49
2023-12-29T04:07:44.886Z,5.50
2023-12-29T04:12:47.823Z,5.49
2023-12-29T04:17:50.689Z,5.47
2023-12-29T04:22:53.967Z,5.44
2023-12-29T04:27:56.870Z,5.39
2023-12-29T04:32:59.907Z,5.35
2023-12-29T04:38:03.131Z,5.30
2023-12-29T04:43:06.399Z,5.26
2023-12-29T04:48:09.287Z,5.21
2023-12-29T04:53:12.507Z,5.15
2023-12-29T04:58:15.565Z,5.08
2023-12-29T05:03:18.387Z,5.05
2023-12-29T05:08:21.349Z,5.02
2023-12-29T05:13:24.042Z,5.02
2023-12-29T05:18:28.109Z,4.99
2023-12-29T05:23:30.975Z,4.96
2023-12-29T05:28:33.694Z,4.93
2023-12-29T05:33:37.094Z,4.91
2023-12-29T05:38:41.158Z,4.91
2023-12-29T05:43:43.844Z,4.90
2023-12-29T05:48:47.996Z,4.90
2023-12-29T05:53:50.822Z,4.93
2023-12-29T05:58:53.698Z,4.96
2023-12-29T06:03:56.556Z,5.00
2023-12-29T06:08:59.334Z,5.04
2023-12-29T06:14:02.172Z,5.07
2023-12-29T06:19:05.103Z,5.10
2023-12-29T06:24:07.991Z,5.10
2023-12-29T06:29:11.497Z,5.11
2023-12-29T06:34:14.342Z,5.12
2023-12-29T06:39:17.315Z,5.12
2023-12-29T06:44:20.359Z,5.14
2023-12-29T06:49:23.168Z,5.16
2023-12-29T06:54:25.933Z,5.20
2023-12-29T06:59:28.672Z,5.22
2023-12-29T07:04:31.437Z,5.23
2023-12-29T07:09:34.181Z,5.23
2023-12-29T07:14:37.020Z,5.27
2023-12-29T07:19:39.917Z,5.30
2023-12-29T07:24:42.776Z,5.32
2023-12-29T07:29:45.629Z,5.34
2023-12-29T07:34:49.816Z,5.36
2023-12-29T07:39:53.031Z,5.39
2023-12-29T07:44:57.607Z,5.38
2023-12-29T07:50:00.728Z,5.39
2023-12-29T07:55:03.814Z,5.41
2023-12-29T08:00:07.788Z,5.45
2023-12-29T08:05:10.551Z,5.49
2023-12-29T08:10:13.444Z,5.56
2023-12-29T08:15:16.229Z,5.65
2023-12-29T08:20:18.943Z,5.71
2023-12-29T08:25:21.717Z,5.77
2023-12-29T08:30:24.555Z,5.83
2023-12-29T08:35:27.423Z,5.89
2023-12-29T08:40:30.366Z,5.94
2023-12-29T08:45:33.379Z,6.01
2023-12-29T08:50:36.231Z,6.08
2023-12-29T08:55:39.315Z,6.14
2023-12-29T09:00:42.128Z,6.21
2023-12-29T09:05:44.944Z,6.26
2023-12-29T09:10:47.718Z,6.33
2023-12-29T09:15:50.523Z,6.39
2023-12-29T09:20:53.377Z,6.43
2023-12-29T09:25:56.274Z,6.45
2023-12-29T09:30:59.272Z,6.43
2023-12-29T09:36:02.112Z,6.43
2023-12-29T09:41:14.955Z,6.41
2023-12-29T09:46:19.702Z,6.44
2023-12-29T09:51:25.232Z,6.48
2023-12-29T09:56:28.376Z,6.51
2023-12-29T10:01:32.385Z,6.54
2023-12-29T10:06:37.959Z,6.56
2023-12-29T10:11:43.299Z,6.57
2023-12-29T10:16:56.032Z,6.58
2023-12-29T10:22:08.659Z,6.57
2023-12-29T10:27:12.024Z,6.56
2023-12-29T10:32:14.832Z,6.56
2023-12-29T10:37:24.040Z,6.58
2023-12-29T10:42:26.916Z,6.59
2023-12-29T10:47:29.670Z,6.65
2023-12-29T10:52:33.855Z,6.79
2023-12-29T10:57:37.727Z,6.94
2023-12-29T11:02:41.760Z,7.02
2023-12-29T11:07:44.643Z,7.05
2023-12-29T11:12:49.333Z,7.09
2023-12-29T11:17:54.624Z,7.13
2023-12-29T11:22:57.523Z,7.26
2023-12-29T11:28:01.682Z,7.41
2023-12-29T11:33:09.875Z,7.69
2023-12-29T11:38:33.863Z,8.03
2023-12-29T11:43:37.253Z,7.89
2023-12-29T11:48:59.195Z,7.82
2023-12-29T11:54:05.524Z,7.79
2023-12-29T11:59:16.005Z,7.87
2023-12-29T12:04:46.952Z,8.55
2023-12-29T12:09:56.440Z,8.86
2023-12-29T12:14:59.391Z,8.69
2023-12-29T12:20:12.568Z,8.59
2023-12-29T12:25:16.273Z,8.48
2023-12-29T12:30:20.137Z,8.35
2023-12-29T12:35:24.043Z,8.23
2023-12-29T12:40:29.960Z,8.15
2023-12-29T12:45:44.320Z,8.09
2023-12-29T12:50:48.972Z,8.03
2023-12-29T12:55:53.689Z,7.99
2023-12-29T13:00:58.968Z,7.97
2023-12-29T13:06:02.714Z,7.97
2023-12-29T13:11:06.810Z,7.95
2023-12-29T13:16:10.276Z,7.94
2023-12-29T13:21:13.928Z,7.93
2023-12-29T13:26:19.839Z,7.93
2023-12-29T13:31:22.980Z,7.95
2023-12-29T13:36:44.911Z,7.94
2023-12-29T13:41:48.484Z,7.96
2023-12-29T13:46:52.575Z,7.97
2023-12-29T13:51:55.608Z,8.02
2023-12-29T13:56:58.323Z,8.08
2023-12-29T14:02:20.671Z,8.13
2023-12-29T14:07:26.370Z,8.18
2023-12-29T14:12:29.165Z,8.18
2023-12-29T14:17:32.191Z,8.17
2023-12-29T14:22:35.113Z,8.15
2023-12-29T14:27:40.486Z,8.15
2023-12-29T14:32:43.403Z,8.17
2023-12-29T14:37:46.366Z,8.19
2023-12-29T14:42:49.209Z,8.17
2023-12-29T14:47:52.046Z,8.16
2023-12-29T14:52:54.936Z,8.16
2023-12-29T14:57:57.932Z,8.16
2023-12-29T15:03:00.811Z,8.16
2023-12-29T15:08:05.587Z,8.17
2023-12-29T15:13:08.761Z,8.17
2023-12-29T15:18:11.553Z,8.17
2023-12-29T15:23:14.381Z,8.17
2023-12-29T15:28:20.651Z,8.15
2023-12-29T15:33:23.785Z,8.15
2023-12-29T15:38:26.703Z,8.12
2023-12-29T15:43:30.807Z,8.07
2023-12-29T15:48:33.679Z,8.03
2023-12-29T15:53:36.856Z,7.98
2023-12-29T15:58:39.631Z,7.93
2023-12-29T16:03:42.583Z,7.89
2023-12-29T16:08:45.599Z,7.85
2023-12-29T16:13:48.644Z,7.82
2023-12-29T16:18:51.565Z,7.82
2023-12-29T16:23:54.526Z,7.87
2023-12-29T16:28:57.276Z,7.94
2023-12-29T16:34:00.943Z,8.01
2023-12-29T16:39:04.826Z,8.04
2023-12-29T16:44:08.878Z,8.05
2023-12-29T16:49:11.706Z,8.03
2023-12-29T16:54:14.721Z,8.00
2023-12-29T16:59:18.146Z,7.98
2023-12-29T17:04:21.174Z,7.94
2023-12-29T17:09:24.043Z,7.87
2023-12-29T17:14:26.768Z,7.77
2023-12-29T17:19:29.655Z,7.66
2023-12-29T17:24:35.055Z,7.59
2023-12-29T17:29:39.830Z,7.52
2023-12-29T17:34:43.172Z,7.47
2023-12-29T17:39:46.529Z,7.46
2023-12-29T17:44:49.774Z,7.47
2023-12-29T17:49:52.589Z,7.46
2023-12-29T17:54:57.172Z,7.45
2023-12-29T18:00:00.658Z,7.42
2023-12-29T18:05:04.676Z,7.38
2023-12-29T18:10:10.075Z,7.34
2023-12-29T18:15:15.567Z,7.29
2023-12-29T18:20:18.679Z,7.25
2023-12-29T18:25:21.557Z,7.18
2023-12-29T18:30:24.439Z,7.14
2023-12-29T18:35:27.274Z,7.08
2023-12-29T18:40:32.142Z,7.01
2023-12-29T18:45:35.128Z,6.94
2023-12-29T18:50:37.975Z,6.85
2023-12-29T18:55:45.607Z,6.75
2023-12-29T19:00:52.172Z,6.64
2023-12-29T19:05:55.134Z,6.52
2023-12-29T19:10:57.840Z,6.43
2023-12-29T19:16:02.998Z,6.36
2023-12-29T19:21:06.301Z,6.29
2023-12-29T19:26:18.458Z,6.26
2023-12-29T19:31:21.524Z,6.20
2023-12-29T19:36:24.460Z,6.16
2023-12-29T19:41:35.434Z,6.13
2023-12-29T19:46:43.075Z,6.08
2023-12-29T19:51:45.971Z,6.03
2023-12-29T19:56:52.659Z,5.96
2023-12-29T20:01:55.653Z,5.93
2023-12-29T20:06:58.452Z,5.93
2023-12-29T20:12:01.182Z,5.91
2023-12-29T20:17:04.138Z,5.90
2023-12-29T20:22:06.906Z,5.91
2023-12-29T20:27:09.781Z,5.91
2023-12-29T20:32:12.939Z,5.89
2023-12-29T20:37:15.771Z,5.89
2023-12-29T20:42:18.616Z,5.90
2023-12-29T20:47:21.743Z,5.91
2023-12-29T20:52:24.646Z,5.92
2023-12-29T20:57:27.562Z,5.94
2023-12-29T21:02:30.277Z,5.97
2023-12-29T21:07:33.103Z,5.97
2023-12-29T21:12:35.933Z,5.98
2023-12-29T21:17:38.699Z,6.00
2023-12-29T21:22:44.095Z,5.99
2023-12-29T21:27:47.640Z,6.02
2023-12-29T21:32:50.507Z,6.05
2023-12-29T21:37:53.212Z,6.08
2023-12-29T21:42:56.030Z,6.11
2023-12-29T21:47:58.917Z,6.13
2023-12-29T21:53:02.040Z,6.17
2023-12-29T21:58:05.468Z,6.22
2023-12-29T22:03:08.231Z,6.26
2023-12-29T22:08:11.372Z,6.30
2023-12-29T22:13:14.091Z,6.30
2023-12-29T22:18:16.903Z,6.31
2023-12-29T22:23:19.740Z,6.32
2023-12-29T22:28:23.126Z,6.29
2023-12-29T22:33:25.970Z,6.27
2023-12-29T22:38:28.717Z,6.27
2023-12-29T22:43:31.459Z,6.26
2023-12-29T22:48:34.310Z,6.25
2023-12-29T22:53:37.557Z,6.25
2023-12-29T22:58:40.293Z,6.24
2023-12-29T23:03:43.107Z,6.24
2023-12-29T23:08:46.028Z,6.23
2023-12-29T23:13:48.870Z,6.23
2023-12-29T23:18:53.227Z,6.24
2023-12-29T23:23:56.046Z,6.26
2023-12-29T23:28:58.934Z,6.26
2023-12-29T23:34:01.829Z,6.27
2023-12-29T23:39:04.654Z,6.28
2023-12-29T23:44:08.573Z,6.30
2023-12-29T23:49:11.442Z,6.31
2023-12-29T23:54:14.873Z,6.38
2023-12-29T23:59:18.296Z,6.46
